Greenhurst, New York
Current Conditions -  °F | °C
As of 5:15 PM on Thursday 18 Dec 2014 (Local Time) from KJHW Reporting Station
Overcast Overcast  
Wind Chill: 20°   Ceiling: 500
Heat Index: 28°   Visibility: 2.5mi
Dew Point: 25°   Wind: 9mph
Humidity: 86%   Direction: 270°W
Pressure: 30.05"   Gusts: NA
Location:  42.12°N, 79.31°W
Report Text: KJHW 182215Z 27008KT 2 1/2SM OVC005 M02/M04 A3005 RMK AO1
Loading
Personal Weather Stations






























Interactive Weather Map New forecast layout! Learn more

10-Day Weather Forecast

Advertisements
Track Severe Weather on mobile